RYR8972 LICJ-LIBR
Flight info
| Callsign | RYR8972 |
|---|---|
| Flight time | N/A |
| Altitude | 35000 |
| Route | ROSAS DCT LUXIL L995 ROBOT |
| Aircraft | B738/M-SADE3FGHIJ1J7LP2RWXY/SB1D1G1 |
Departure
| Time | 2026-05-01 15:18 |
|---|---|
| Airport | Falcone–Borsellino Airport (LICJ) |
Arrival
| Time | N/A |
|---|---|
| Airport | Brindisi Airport (LIBR) |
| Time | Latitude | Longitude | Altitude | Speed | Heading |
|---|---|---|---|---|---|
| 2026-05-01 14:49 | 38.18555 | 13.10608 | 48 ft | 0 kts | 336° |
| 2026-05-01 15:09 | 38.18546 | 13.10613 | 52 ft | 3 kts | 336° |
| 2026-05-01 15:09 | 38.18529 | 13.10622 | 47 ft | 3 kts | 336° |
| 2026-05-01 15:09 | 38.18511 | 13.10631 | 45 ft | 3 kts | 336° |
| 2026-05-01 15:09 | 38.18495 | 13.10641 | 51 ft | 3 kts | 336° |
| 2026-05-01 15:10 | 38.18478 | 13.10650 | 47 ft | 3 kts | 336° |
| 2026-05-01 15:10 | 38.18466 | 13.10656 | 46 ft | 0 kts | 336° |
| 2026-05-01 15:11 | 38.18474 | 13.10650 | 46 ft | 2 kts | 315° |
| 2026-05-01 15:11 | 38.18473 | 13.10620 | 48 ft | 5 kts | 253° |
| 2026-05-01 15:12 | 38.18454 | 13.10562 | 52 ft | 9 kts | 247° |
| 2026-05-01 15:12 | 38.18336 | 13.10474 | 52 ft | 11 kts | 215° |
| 2026-05-01 15:12 | 38.18300 | 13.10387 | 50 ft | 10 kts | 245° |
| 2026-05-01 15:13 | 38.18161 | 13.10208 | 52 ft | 13 kts | 247° |
| 2026-05-01 15:14 | 38.18074 | 13.09947 | 49 ft | 20 kts | 246° |
| 2026-05-01 15:14 | 38.18013 | 13.09767 | 50 ft | 24 kts | 246° |
| 2026-05-01 15:14 | 38.17879 | 13.09368 | 52 ft | 25 kts | 246° |
| 2026-05-01 15:15 | 38.17761 | 13.09010 | 52 ft | 16 kts | 246° |
| 2026-05-01 15:15 | 38.17653 | 13.08869 | 52 ft | 11 kts | 216° |
| 2026-05-01 15:16 | 38.17533 | 13.08755 | 52 ft | 10 kts | 209° |
| 2026-05-01 15:16 | 38.17498 | 13.08849 | 52 ft | 10 kts | 67° |
| 2026-05-01 15:17 | 38.17616 | 13.09201 | 49 ft | 64 kts | 66° |
| 2026-05-01 15:18 | 38.18669 | 13.12368 | 770 ft | 148 kts | 66° |
| 2026-05-01 15:18 | 38.19054 | 13.13555 | 1455 ft | 149 kts | 64° |
| 2026-05-01 15:19 | 38.20595 | 13.17919 | 2387 ft | 204 kts | 60° |
| 2026-05-01 15:19 | 38.22530 | 13.20543 | 3524 ft | 215 kts | 28° |
| 2026-05-01 15:19 | 38.23979 | 13.21315 | 3786 ft | 235 kts | 22° |
| 2026-05-01 15:20 | 38.27145 | 13.22936 | 4960 ft | 250 kts | 22° |
| 2026-05-01 15:20 | 38.28755 | 13.23775 | 5698 ft | 251 kts | 21° |
| 2026-05-01 15:20 | 38.30376 | 13.24630 | 6413 ft | 254 kts | 21° |
| 2026-05-01 15:21 | 38.32028 | 13.25502 | 7037 ft | 260 kts | 21° |
| 2026-05-01 15:21 | 38.33711 | 13.26391 | 7796 ft | 263 kts | 20° |
| 2026-05-01 15:21 | 38.35411 | 13.27293 | 8639 ft | 266 kts | 20° |
| 2026-05-01 15:21 | 38.37133 | 13.28209 | 9528 ft | 270 kts | 20° |
| 2026-05-01 15:22 | 38.40676 | 13.30095 | 10752 ft | 294 kts | 19° |
| 2026-05-01 15:22 | 38.42646 | 13.31142 | 11049 ft | 315 kts | 19° |
| 2026-05-01 15:22 | 38.44695 | 13.32234 | 11712 ft | 322 kts | 19° |
| 2026-05-01 15:23 | 38.46773 | 13.33346 | 12510 ft | 326 kts | 18° |
| 2026-05-01 15:23 | 38.48872 | 13.34470 | 13318 ft | 329 kts | 18° |
| 2026-05-01 15:23 | 38.50998 | 13.35608 | 14083 ft | 334 kts | 17° |
| 2026-05-01 15:23 | 38.53151 | 13.36761 | 14772 ft | 338 kts | 17° |
| 2026-05-01 15:24 | 38.55328 | 13.37928 | 15483 ft | 341 kts | 17° |
| 2026-05-01 15:24 | 38.57530 | 13.39109 | 16163 ft | 345 kts | 16° |
| 2026-05-01 15:24 | 38.59757 | 13.40304 | 16925 ft | 347 kts | 16° |
| 2026-05-01 15:24 | 38.61986 | 13.41502 | 17686 ft | 349 kts | 16° |
| 2026-05-01 15:25 | 38.64240 | 13.42713 | 18343 ft | 354 kts | 16° |
| 2026-05-01 15:25 | 38.66523 | 13.43940 | 18922 ft | 358 kts | 15° |
| 2026-05-01 15:25 | 38.68834 | 13.45183 | 19513 ft | 361 kts | 15° |
| 2026-05-01 15:25 | 38.71157 | 13.46434 | 20090 ft | 365 kts | 15° |
| 2026-05-01 15:26 | 38.73508 | 13.47701 | 20653 ft | 369 kts | 14° |
| 2026-05-01 15:26 | 38.75886 | 13.48985 | 21217 ft | 372 kts | 14° |
| 2026-05-01 15:26 | 38.78286 | 13.50280 | 21782 ft | 377 kts | 13° |
| 2026-05-01 15:26 | 38.80725 | 13.51595 | 22246 ft | 383 kts | 13° |
| 2026-05-01 15:27 | 38.83191 | 13.52931 | 22835 ft | 386 kts | 14° |
| 2026-05-01 15:27 | 38.85541 | 13.54771 | 23354 ft | 412 kts | 32° |
| 2026-05-01 15:27 | 38.87506 | 13.57581 | 23864 ft | 428 kts | 40° |
| 2026-05-01 15:28 | 38.91243 | 13.63656 | 24634 ft | 438 kts | 42° |
| 2026-05-01 15:28 | 38.93121 | 13.66759 | 25047 ft | 442 kts | 42° |
| 2026-05-01 15:28 | 38.95016 | 13.69880 | 25455 ft | 445 kts | 42° |
| 2026-05-01 15:29 | 38.98869 | 13.76174 | 26291 ft | 451 kts | 42° |
| 2026-05-01 15:29 | 39.00799 | 13.79316 | 26982 ft | 445 kts | 42° |
| 2026-05-01 15:29 | 39.04676 | 13.85605 | 27609 ft | 455 kts | 42° |
| 2026-05-01 15:30 | 39.08660 | 13.92057 | 28195 ft | 465 kts | 42° |
| 2026-05-01 15:31 | 39.16739 | 14.05220 | 29585 ft | 476 kts | 42° |
| 2026-05-01 15:31 | 39.20848 | 14.11940 | 30401 ft | 477 kts | 42° |
| 2026-05-01 15:32 | 39.24924 | 14.18631 | 31353 ft | 470 kts | 43° |
| 2026-05-01 15:32 | 39.28931 | 14.25221 | 32325 ft | 465 kts | 43° |
| 2026-05-01 15:33 | 39.34896 | 14.35029 | 33620 ft | 457 kts | 43° |
| 2026-05-01 15:34 | 39.40674 | 14.44572 | 34884 ft | 447 kts | 43° |